createdAt,value
2017-10-09T00:00:10.711Z,100725.90
2017-10-09T00:02:39.926Z,100724.39
2017-10-09T00:05:09.159Z,100725.34
2017-10-09T00:07:39.143Z,100725.28
2017-10-09T00:10:08.377Z,100725.03
2017-10-09T00:12:38.592Z,100723.91
2017-10-09T00:15:08.551Z,100716.48
2017-10-09T00:17:37.759Z,100716.33
2017-10-09T00:20:06.947Z,100725.36
2017-10-09T00:22:36.177Z,100725.45
2017-10-09T00:25:05.421Z,100725.61
2017-10-09T00:27:34.624Z,100725.92
2017-10-09T00:30:03.863Z,100728.82
2017-10-09T00:32:33.131Z,100731.42
2017-10-09T00:35:02.360Z,100725.74
2017-10-09T00:37:31.571Z,100718.94
2017-10-09T00:40:00.862Z,100727.72
2017-10-09T00:42:30.102Z,100724.23
2017-10-09T00:44:59.402Z,100720.08
2017-10-09T00:47:28.875Z,100715.70
2017-10-09T00:49:58.879Z,100716.72
2017-10-09T00:52:28.092Z,100717.77
2017-10-09T00:54:58.105Z,100717.68
2017-10-09T00:57:28.076Z,100715.37
2017-10-09T00:59:58.015Z,100715.00
2017-10-09T01:02:27.211Z,100712.26
2017-10-09T01:04:56.415Z,100716.11
2017-10-09T01:07:26.407Z,100715.63
2017-10-09T01:09:55.621Z,100719.59
2017-10-09T01:12:26.579Z,100713.92
2017-10-09T01:14:55.772Z,100716.18
2017-10-09T01:17:25.052Z,100714.58
2017-10-09T01:19:54.267Z,100718.09
2017-10-09T01:22:23.544Z,100701.11
2017-10-09T01:24:52.792Z,100705.52
2017-10-09T01:27:22.013Z,100707.98
2017-10-09T01:29:51.324Z,100701.87
2017-10-09T01:32:20.520Z,100708.22
2017-10-09T01:34:49.724Z,100703.02
2017-10-09T01:37:18.953Z,100704.16
2017-10-09T01:39:48.172Z,100699.50
2017-10-09T01:42:18.154Z,100693.98
2017-10-09T01:44:47.455Z,100702.13
2017-10-09T01:47:16.670Z,100701.04
2017-10-09T01:49:46.642Z,100702.55
2017-10-09T01:52:15.863Z,100703.47
2017-10-09T01:54:45.862Z,100701.44
2017-10-09T01:57:15.069Z,100697.44
2017-10-09T01:59:44.259Z,100702.52
2017-10-09T02:02:13.475Z,100697.89
2017-10-09T02:04:42.678Z,100695.42
2017-10-09T02:07:11.883Z,100695.11
2017-10-09T02:09:41.091Z,100690.39
2017-10-09T02:12:11.152Z,100700.61
2017-10-09T02:14:40.402Z,100695.59
2017-10-09T02:17:10.370Z,100694.45
2017-10-09T02:19:39.595Z,100700.73
2017-10-09T02:22:08.859Z,100697.24
2017-10-09T02:24:38.055Z,100708.70
2017-10-09T02:27:07.264Z,100702.73
2017-10-09T02:29:36.480Z,100704.58
2017-10-09T02:32:05.671Z,100700.42
2017-10-09T02:34:34.908Z,100703.13
2017-10-09T02:37:04.919Z,100701.69
2017-10-09T02:39:34.891Z,100707.78
2017-10-09T02:42:04.116Z,100715.07
2017-10-09T02:44:33.330Z,100711.43
2017-10-09T02:47:03.295Z,100704.95
2017-10-09T02:49:32.485Z,100712.59
2017-10-09T02:52:01.718Z,100700.15
2017-10-09T02:54:30.916Z,100713.32
2017-10-09T02:57:00.130Z,100715.19
2017-10-09T02:59:29.339Z,100709.92
2017-10-09T03:01:59.307Z,100710.97
2017-10-09T03:04:28.541Z,100709.14
2017-10-09T03:06:58.510Z,100713.20
2017-10-09T03:09:27.715Z,100714.86
2017-10-09T03:11:56.952Z,100708.34
2017-10-09T03:14:26.959Z,100708.70
2017-10-09T03:16:56.273Z,100711.41
2017-10-09T03:19:26.242Z,100710.08
2017-10-09T03:21:55.440Z,100711.66
2017-10-09T03:37:47.267Z,100698.26
2017-10-09T03:40:16.502Z,100697.80
2017-10-09T03:42:45.704Z,100695.42
2017-10-09T03:45:14.918Z,100698.98
2017-10-09T03:47:44.118Z,100699.69
2017-10-09T03:50:13.321Z,100706.02
2017-10-09T03:52:42.550Z,100703.67
2017-10-09T03:55:11.764Z,100703.05
2017-10-09T03:57:40.979Z,100697.48
2017-10-09T04:00:10.947Z,100701.06
2017-10-09T04:02:40.193Z,100697.31
2017-10-09T04:05:09.393Z,100694.20
2017-10-09T04:07:39.368Z,100691.39
2017-10-09T04:10:08.614Z,100694.58
2017-10-09T04:12:37.819Z,100696.16
2017-10-09T04:15:07.051Z,100690.74
2017-10-09T04:17:36.251Z,100697.44
2017-10-09T04:20:05.488Z,100695.36
2017-10-09T04:22:35.555Z,100696.86
2017-10-09T04:25:04.811Z,100694.95
2017-10-09T04:27:34.806Z,100696.84
2017-10-09T04:30:03.999Z,100699.95
2017-10-09T04:32:33.207Z,100703.70
2017-10-09T04:35:03.187Z,100700.09
2017-10-09T04:37:32.409Z,100701.70
2017-10-09T04:40:01.601Z,100699.49
2017-10-09T04:42:30.843Z,100702.55
2017-10-09T04:45:00.068Z,100701.73
2017-10-09T04:47:29.259Z,100700.14
2017-10-09T04:49:58.478Z,100704.84
2017-10-09T04:52:27.698Z,100700.31
2017-10-09T04:54:56.910Z,100700.56
2017-10-09T04:57:26.110Z,100700.47
2017-10-09T04:59:56.092Z,100691.73
2017-10-09T05:02:25.295Z,100688.95
2017-10-09T05:04:54.579Z,100692.86
2017-10-09T05:07:23.787Z,100684.16
2017-10-09T05:09:53.021Z,100685.37
2017-10-09T05:12:22.995Z,100680.14
2017-10-09T05:14:52.299Z,100672.41
2017-10-09T05:17:23.015Z,100676.48
2017-10-09T05:19:52.224Z,100675.52
2017-10-09T05:22:21.452Z,100672.06
2017-10-09T05:24:51.419Z,100672.87
2017-10-09T05:27:20.632Z,100681.34
2017-10-09T05:29:49.827Z,100677.53
2017-10-09T05:32:19.070Z,100679.59
2017-10-09T05:34:49.026Z,100676.69
2017-10-09T05:37:18.268Z,100679.02
2017-10-09T05:39:47.448Z,100677.24
2017-10-09T05:42:16.868Z,100673.08
2017-10-09T05:44:46.860Z,100669.62
2017-10-09T05:47:16.112Z,100668.95
2017-10-09T05:49:45.342Z,100672.76
2017-10-09T05:52:14.829Z,100665.89
2017-10-09T05:54:44.026Z,100669.75
2017-10-09T05:57:13.233Z,100675.90
2017-10-09T05:59:42.460Z,100678.61
2017-10-09T06:02:11.881Z,100673.59
2017-10-09T06:04:41.106Z,100684.92
2017-10-09T06:07:11.054Z,100687.45
2017-10-09T06:09:40.259Z,100685.34
2017-10-09T06:12:09.490Z,100689.08
2017-10-09T06:14:38.682Z,100687.17
2017-10-09T06:17:07.869Z,100690.38
2017-10-09T06:19:37.083Z,100686.62
2017-10-09T06:22:07.068Z,100681.70
2017-10-09T06:24:36.311Z,100682.41
2017-10-09T06:27:05.506Z,100677.64
2017-10-09T06:29:34.702Z,100683.28
2017-10-09T06:32:03.927Z,100682.25
2017-10-09T06:34:33.131Z,100676.53
2017-10-09T06:37:02.386Z,100673.12
2017-10-09T06:39:32.340Z,100682.83
2017-10-09T06:42:01.605Z,100672.95
2017-10-09T06:44:30.836Z,100673.64
2017-10-09T06:47:00.791Z,100666.72
2017-10-09T06:49:30.002Z,100668.95
2017-10-09T06:51:59.252Z,100667.97
2017-10-09T06:54:28.479Z,100668.65
2017-10-09T06:56:57.678Z,100667.45
2017-10-09T06:59:27.675Z,100669.58
2017-10-09T07:01:56.884Z,100667.05
2017-10-09T07:04:26.099Z,100672.72
2017-10-09T07:06:55.310Z,100683.54
2017-10-09T07:09:24.520Z,100681.37
2017-10-09T07:11:54.496Z,100677.00
2017-10-09T07:14:23.706Z,100679.25
2017-10-09T07:16:52.979Z,100676.28
2017-10-09T07:19:22.208Z,100684.72
2017-10-09T07:21:51.414Z,100682.72
2017-10-09T07:24:21.388Z,100693.73
2017-10-09T07:26:50.620Z,100697.40
2017-10-09T07:29:19.819Z,100698.62
2017-10-09T07:31:49.063Z,100705.23
2017-10-09T07:34:18.331Z,100705.06
2017-10-09T07:36:47.549Z,100710.03
2017-10-09T07:39:16.774Z,100708.03
2017-10-09T07:41:45.994Z,100708.96
2017-10-09T07:44:15.194Z,100712.77
2017-10-09T07:46:45.223Z,100705.48
2017-10-09T07:49:15.224Z,100703.36
2017-10-09T07:51:44.503Z,100702.77
2017-10-09T07:54:14.506Z,100706.38
2017-10-09T07:56:43.764Z,100702.54
2017-10-09T07:59:12.988Z,100704.02
2017-10-09T08:01:42.186Z,100700.23
2017-10-09T08:04:11.407Z,100700.19
2017-10-09T08:06:40.620Z,100703.91
2017-10-09T08:09:09.881Z,100702.23
2017-10-09T08:11:39.082Z,100700.46
2017-10-09T08:14:08.303Z,100714.69
2017-10-09T08:16:37.565Z,100702.72
2017-10-09T08:19:06.783Z,100705.55
2017-10-09T08:21:36.118Z,100710.78
2017-10-09T08:24:05.350Z,100712.70
2017-10-09T08:26:34.566Z,100704.53
2017-10-09T08:29:03.811Z,100708.80
2017-10-09T08:31:33.058Z,100712.71
2017-10-09T08:34:02.286Z,100715.45
2017-10-09T08:36:31.522Z,100712.84
2017-10-09T08:39:01.503Z,100720.23
2017-10-09T08:41:30.727Z,100714.64
2017-10-09T08:44:00.752Z,100709.84
2017-10-09T08:46:29.951Z,100707.45
2017-10-09T08:48:59.194Z,100707.61
2017-10-09T08:51:28.412Z,100711.52
2017-10-09T08:53:57.791Z,100709.70
2017-10-09T08:56:27.057Z,100714.34
2017-10-09T08:58:57.211Z,100713.15
2017-10-09T09:01:26.434Z,100715.32
2017-10-09T09:03:55.642Z,100715.48
2017-10-09T09:06:24.869Z,100712.17
2017-10-09T09:08:54.839Z,100711.94
2017-10-09T09:11:24.063Z,100711.78
2017-10-09T09:13:54.175Z,100717.48
2017-10-09T09:16:23.401Z,100717.55
2017-10-09T09:18:52.609Z,100717.55
2017-10-09T09:21:21.851Z,100720.12
2017-10-09T09:23:51.059Z,100724.45
2017-10-09T09:26:20.266Z,100714.18
2017-10-09T09:28:49.495Z,100716.91
2017-10-09T09:31:18.711Z,100712.08
2017-10-09T09:33:47.924Z,100712.66
2017-10-09T09:36:17.135Z,100709.75
2017-10-09T09:38:46.353Z,100712.01
2017-10-09T09:41:15.592Z,100715.55
2017-10-09T09:43:44.844Z,100712.88
2017-10-09T09:46:14.058Z,100711.84
2017-10-09T09:48:44.037Z,100712.48
2017-10-09T09:51:13.252Z,100710.42
2017-10-09T09:53:42.526Z,100699.66
2017-10-09T09:56:11.735Z,100702.85
2017-10-09T09:58:40.959Z,100710.68
2017-10-09T10:01:10.208Z,100715.37
2017-10-09T10:03:39.423Z,100709.72
2017-10-09T10:06:10.146Z,100714.52
2017-10-09T10:08:39.495Z,100711.78
2017-10-09T10:11:08.735Z,100717.53
2017-10-09T10:13:37.954Z,100713.38
2017-10-09T10:16:07.186Z,100709.29
2017-10-09T10:18:37.214Z,100719.97
2017-10-09T10:21:07.533Z,100716.51
2017-10-09T10:23:37.561Z,100720.84
2017-10-09T10:26:07.526Z,100716.44
2017-10-09T10:28:36.763Z,100717.17
2017-10-09T10:31:07.043Z,100712.81
2017-10-09T10:33:36.260Z,100713.55
2017-10-09T10:36:05.607Z,100710.81
2017-10-09T10:38:34.981Z,100711.55
2017-10-09T10:41:05.071Z,100706.42
2017-10-09T10:43:34.310Z,100711.98
2017-10-09T10:46:03.556Z,100708.28
2017-10-09T10:48:32.815Z,100705.63
2017-10-09T10:51:02.020Z,100700.53
2017-10-09T10:53:31.291Z,100694.25
2017-10-09T10:56:01.262Z,100694.31
2017-10-09T10:58:30.483Z,100692.48
2017-10-09T11:00:59.760Z,100694.55
2017-10-09T11:03:29.757Z,100691.78
2017-10-09T11:05:58.967Z,100688.23
2017-10-09T11:08:28.526Z,100688.33
2017-10-09T11:10:58.498Z,100680.54
2017-10-09T11:13:27.747Z,100679.74
2017-10-09T11:15:56.981Z,100679.25
2017-10-09T11:18:26.215Z,100671.23
2017-10-09T11:20:56.195Z,100676.19
2017-10-09T11:23:25.422Z,100667.70
2017-10-09T11:25:54.641Z,100667.63
2017-10-09T11:28:24.631Z,100665.21
2017-10-09T11:30:53.859Z,100662.72
2017-10-09T11:33:23.843Z,100667.80
2017-10-09T11:35:53.072Z,100660.62
2017-10-09T11:38:23.083Z,100655.73
2017-10-09T11:40:52.280Z,100651.06
2017-10-09T11:43:22.251Z,100643.40
2017-10-09T11:45:51.511Z,100644.09
2017-10-09T11:48:20.729Z,100642.16
2017-10-09T11:50:49.995Z,100644.55
2017-10-09T11:53:19.982Z,100640.13
2017-10-09T11:55:49.238Z,100639.20
2017-10-09T11:58:18.497Z,100638.06
2017-10-09T12:00:47.709Z,100636.64
2017-10-09T12:03:16.966Z,100637.64
2017-10-09T12:05:46.198Z,100627.50
2017-10-09T12:08:15.575Z,100628.45
2017-10-09T12:10:44.853Z,100624.47
2017-10-09T12:13:14.075Z,100624.09
2017-10-09T12:15:43.342Z,100616.41
2017-10-09T12:18:12.579Z,100618.69
2017-10-09T12:20:41.791Z,100618.69
2017-10-09T12:23:11.792Z,100615.98
2017-10-09T12:25:41.790Z,100610.30
2017-10-09T12:28:11.087Z,100610.55
2017-10-09T12:30:41.096Z,100606.23
2017-10-09T12:33:10.324Z,100607.39
2017-10-09T12:35:39.576Z,100610.64
2017-10-09T12:38:08.791Z,100605.06
2017-10-09T12:40:37.997Z,100603.47
2017-10-09T12:43:07.233Z,100597.77
2017-10-09T12:45:36.489Z,100600.05
2017-10-09T12:48:05.747Z,100595.09
2017-10-09T12:50:34.964Z,100600.51
2017-10-09T12:53:04.147Z,100598.80
2017-10-09T12:55:33.352Z,100588.00
2017-10-09T12:58:02.579Z,100584.98
2017-10-09T13:00:31.823Z,100583.78
2017-10-09T13:09:10.184Z,100580.51
2017-10-09T13:11:39.417Z,100577.12
2017-10-09T13:14:08.912Z,100577.31
2017-10-09T13:16:38.123Z,100580.11
2017-10-09T13:19:07.483Z,100581.22
2017-10-09T13:21:36.692Z,100579.31
2017-10-09T13:24:05.968Z,100569.86
2017-10-09T13:26:35.951Z,100569.34
2017-10-09T13:29:05.231Z,100573.53
2017-10-09T13:31:34.440Z,100571.68
2017-10-09T13:34:03.655Z,100562.98
2017-10-09T13:36:33.959Z,100564.67
2017-10-09T13:39:06.136Z,100560.13
2017-10-09T13:41:35.427Z,100554.03
2017-10-09T13:44:04.666Z,100545.25
2017-10-09T13:46:34.659Z,100552.76
2017-10-09T14:18:58.133Z,100514.31
2017-10-09T14:21:27.364Z,100514.31
2017-10-09T14:23:56.621Z,100510.20
2017-10-09T14:26:25.828Z,100509.41
2017-10-09T14:28:55.067Z,100515.63
2017-10-09T14:41:21.192Z,100505.97
2017-10-09T14:43:50.404Z,100507.64
2017-10-09T14:46:20.432Z,100512.09
2017-10-09T14:48:49.727Z,100509.19
2017-10-09T14:51:19.016Z,100509.80
2017-10-09T14:53:48.212Z,100505.40
2017-10-09T14:56:17.437Z,100498.86
2017-10-09T14:58:47.422Z,100498.73
2017-10-09T15:01:16.660Z,100503.09
2017-10-09T15:03:45.893Z,100496.92
2017-10-09T15:06:15.162Z,100494.98
2017-10-09T15:08:44.388Z,100502.52
2017-10-09T15:11:13.685Z,100500.22
2017-10-09T15:13:42.938Z,100501.94
2017-10-09T15:16:12.930Z,100492.44
2017-10-09T15:18:42.155Z,100491.39
2017-10-09T15:21:12.164Z,100489.05
2017-10-09T15:23:42.158Z,100487.75
2017-10-09T15:26:11.398Z,100496.58
2017-10-09T15:28:41.381Z,100488.89
2017-10-09T15:31:10.614Z,100495.33
2017-10-09T15:33:39.828Z,100481.26
2017-10-09T15:36:10.044Z,100482.62
2017-10-09T15:38:39.259Z,100485.58
2017-10-09T15:41:08.563Z,100479.72
2017-10-09T15:43:37.786Z,100476.98
2017-10-09T15:46:07.024Z,100481.08
2017-10-09T15:48:37.062Z,100479.09
2017-10-09T15:51:06.361Z,100479.32
2017-10-09T15:53:35.608Z,100474.81
2017-10-09T15:56:04.824Z,100469.74
2017-10-09T15:58:34.839Z,100471.95
2017-10-09T16:01:04.890Z,100477.41
2017-10-09T16:03:34.118Z,100468.64
2017-10-09T16:06:04.217Z,100471.06
2017-10-09T16:08:33.442Z,100478.33
2017-10-09T16:11:02.680Z,100481.34
2017-10-09T16:13:32.690Z,100480.56
2017-10-09T16:16:02.844Z,100486.57
2017-10-09T16:18:32.070Z,100485.05
2017-10-09T16:21:01.334Z,100479.67
2017-10-09T16:23:30.591Z,100481.34
2017-10-09T16:26:00.572Z,100480.14
2017-10-09T16:28:29.806Z,100475.65
2017-10-09T16:30:59.807Z,100476.78
2017-10-09T16:33:29.338Z,100476.73
2017-10-09T16:35:59.348Z,100482.39
2017-10-09T16:38:29.331Z,100478.16
2017-10-09T16:40:58.572Z,100476.61
2017-10-09T16:43:27.786Z,100476.48
2017-10-09T16:45:57.033Z,100471.37
2017-10-09T16:48:26.329Z,100471.88
2017-10-09T16:50:55.541Z,100470.00
2017-10-09T16:53:24.763Z,100473.88
2017-10-09T16:55:54.038Z,100471.72
2017-10-09T16:58:23.284Z,100468.81
2017-10-09T17:00:52.504Z,100470.63
2017-10-09T17:03:21.742Z,100465.73
2017-10-09T17:05:50.953Z,100456.06
2017-10-09T17:08:20.943Z,100453.89
2017-10-09T17:10:51.694Z,100451.50
2017-10-09T17:13:21.699Z,100450.19
2017-10-09T17:15:50.923Z,100451.16
2017-10-09T17:18:20.232Z,100456.40
2017-10-09T17:20:49.496Z,100453.55
2017-10-09T17:23:19.515Z,100452.52
2017-10-09T17:25:48.724Z,100451.98
2017-10-09T17:28:18.726Z,100452.68
2017-10-09T17:30:48.733Z,100446.42
2017-10-09T17:33:18.828Z,100451.88
2017-10-09T17:35:48.070Z,100455.36
2017-10-09T17:38:18.073Z,100450.69
2017-10-09T17:40:47.336Z,100454.65
2017-10-09T17:43:16.568Z,100450.78
2017-10-09T17:45:46.624Z,100454.96
2017-10-09T17:48:15.869Z,100456.73
2017-10-09T17:50:45.176Z,100457.00
2017-10-09T17:53:14.395Z,100462.64
2017-10-09T17:55:44.390Z,100459.11
2017-10-09T17:58:14.396Z,100450.37
2017-10-09T18:00:43.642Z,100449.41
2017-10-09T18:03:12.904Z,100445.71
2017-10-09T18:05:42.906Z,100445.83
2017-10-09T18:08:12.173Z,100439.52
2017-10-09T18:10:41.401Z,100448.09
2017-10-09T18:13:10.628Z,100440.07
2017-10-09T18:15:40.625Z,100440.23
2017-10-09T18:18:09.880Z,100438.69
2017-10-09T18:20:39.096Z,100434.30
2017-10-09T18:23:08.314Z,100434.87
2017-10-09T18:25:37.584Z,100437.11
2017-10-09T18:28:06.796Z,100433.90
2017-10-09T18:30:36.795Z,100438.69
2017-10-09T18:33:06.030Z,100436.45
2017-10-09T18:35:36.048Z,100438.96
2017-10-09T18:38:06.048Z,100435.27
2017-10-09T18:40:35.355Z,100435.48
2017-10-09T18:43:04.587Z,100432.66
2017-10-09T18:45:33.763Z,100435.34
2017-10-09T18:48:03.051Z,100437.22
2017-10-09T18:50:32.272Z,100436.47
2017-10-09T18:53:02.297Z,100439.70
2017-10-09T18:55:32.310Z,100443.79
2017-10-09T18:58:02.375Z,100448.98
2017-10-09T19:00:31.586Z,100448.88
2017-10-09T19:03:00.816Z,100446.91
2017-10-09T19:05:30.824Z,100453.53
2017-10-09T19:08:00.045Z,100445.66
2017-10-09T19:10:30.074Z,100449.36
2017-10-09T19:12:59.295Z,100451.57
2017-10-09T19:15:28.552Z,100460.50
2017-10-09T19:17:58.569Z,100455.06
2017-10-09T19:20:28.560Z,100467.93
2017-10-09T19:22:57.847Z,100460.05
2017-10-09T19:25:27.202Z,100457.63
2017-10-09T19:27:56.391Z,100461.55
2017-10-09T19:30:25.623Z,100462.48
2017-10-09T19:32:54.872Z,100450.22
2017-10-09T19:35:24.863Z,100455.20
2017-10-09T19:37:54.873Z,100458.77
2017-10-09T19:40:24.131Z,100455.86
2017-10-09T19:42:53.371Z,100449.72
2017-10-09T19:45:22.620Z,100453.25
2017-10-09T19:47:51.850Z,100451.14
2017-10-09T19:50:21.929Z,100452.49
2017-10-09T19:52:51.895Z,100456.88
2017-10-09T19:55:21.143Z,100448.52
2017-10-09T19:57:50.372Z,100451.63
2017-10-09T20:00:19.639Z,100450.98
2017-10-09T20:02:48.867Z,100446.15
2017-10-09T20:05:18.121Z,100446.84
2017-10-09T20:07:48.153Z,100449.48
2017-10-09T20:10:17.423Z,100447.98
2017-10-09T20:12:47.420Z,100455.52
2017-10-09T20:15:16.671Z,100444.58
2017-10-09T20:17:45.915Z,100440.94
2017-10-09T20:20:15.167Z,100443.33
2017-10-09T20:22:44.418Z,100449.90
2017-10-09T20:25:13.616Z,100446.14
2017-10-09T20:27:43.799Z,100450.13
2017-10-09T20:30:13.028Z,100446.60
2017-10-09T20:32:42.252Z,100445.12
2017-10-09T20:35:11.492Z,100439.81
2017-10-09T20:37:40.999Z,100441.28
2017-10-09T20:40:10.203Z,100430.45
2017-10-09T20:42:39.467Z,100435.52
2017-10-09T20:45:08.937Z,100428.91
2017-10-09T20:47:38.131Z,100430.77
2017-10-09T20:50:07.338Z,100431.30
2017-10-09T20:52:36.583Z,100431.53
2017-10-09T20:55:05.789Z,100423.42
2017-10-09T20:57:35.127Z,100420.81
2017-10-09T21:00:04.416Z,100417.52
2017-10-09T21:02:34.697Z,100414.98
2017-10-09T21:05:04.862Z,100415.72
2017-10-09T21:07:34.091Z,100414.92
2017-10-09T21:10:03.315Z,100418.33
2017-10-09T21:12:32.552Z,100413.53
2017-10-09T21:15:01.812Z,100412.36
2017-10-09T21:17:31.025Z,100408.52
2017-10-09T21:20:00.251Z,100404.51
2017-10-09T21:22:29.487Z,100399.56
2017-10-09T21:24:58.706Z,100398.20
2017-10-09T21:27:27.955Z,100398.73
2017-10-09T21:29:57.152Z,100393.11
2017-10-09T21:32:26.395Z,100390.44
2017-10-09T21:34:55.646Z,100393.84
2017-10-09T21:37:25.664Z,100388.22
2017-10-09T21:39:54.892Z,100392.59
2017-10-09T21:42:24.139Z,100399.83
2017-10-09T21:44:53.360Z,100396.77
2017-10-09T21:47:23.432Z,100395.05
2017-10-09T21:49:52.639Z,100388.46
2017-10-09T21:52:21.868Z,100385.91
2017-10-09T21:54:51.077Z,100384.54
2017-10-09T21:57:21.086Z,100390.39
2017-10-09T21:59:50.299Z,100385.00
2017-10-09T22:02:20.309Z,100384.66
2017-10-09T22:04:50.290Z,100382.05
2017-10-09T22:07:19.556Z,100381.08
2017-10-09T22:09:48.763Z,100378.47
2017-10-09T22:12:18.023Z,100377.33
2017-10-09T22:14:48.007Z,100374.48
2017-10-09T22:17:17.240Z,100366.28
2017-10-09T22:19:46.463Z,100366.36
2017-10-09T22:22:15.701Z,100370.62
2017-10-09T22:24:44.915Z,100368.58
2017-10-09T22:27:14.183Z,100368.18
2017-10-09T22:29:43.397Z,100361.05
2017-10-09T22:32:12.605Z,100362.08
2017-10-09T22:34:41.824Z,100362.51
2017-10-09T22:37:11.044Z,100358.67
2017-10-09T22:39:40.271Z,100356.94
2017-10-09T22:42:09.488Z,100355.41
2017-10-09T22:44:38.741Z,100357.11
2017-10-09T22:47:07.964Z,100350.05
2017-10-09T22:49:37.948Z,100357.36
2017-10-09T22:52:07.219Z,100352.05
2017-10-09T22:54:43.036Z,100354.69
2017-10-09T22:57:12.244Z,100359.01
2017-10-09T22:59:41.521Z,100360.77
2017-10-09T23:02:10.731Z,100357.94
2017-10-09T23:04:39.950Z,100359.50
2017-10-09T23:07:09.155Z,100361.68
2017-10-09T23:09:39.159Z,100361.11
2017-10-09T23:12:08.384Z,100357.11
2017-10-09T23:14:37.601Z,100351.16
2017-10-09T23:17:06.836Z,100354.34
2017-10-09T23:19:36.056Z,100349.99
2017-10-09T23:22:05.268Z,100358.72
2017-10-09T23:24:35.262Z,100346.58
2017-10-09T23:27:04.473Z,100338.11
2017-10-09T23:29:34.472Z,100334.41
2017-10-09T23:32:03.697Z,100331.03
2017-10-09T23:34:33.685Z,100328.16
2017-10-09T23:37:02.955Z,100322.53
2017-10-09T23:39:32.213Z,100322.81
2017-10-09T23:42:02.195Z,100320.03
2017-10-09T23:44:31.393Z,100319.17
2017-10-09T23:47:00.677Z,100316.27
2017-10-09T23:49:30.328Z,100321.73
2017-10-09T23:52:00.311Z,100312.34
2017-10-09T23:54:30.313Z,100315.36
2017-10-09T23:56:59.527Z,100312.63
2017-10-09T23:59:28.733Z,100306.55
